Alpine Village, Colorado
Current Conditions -  °F | °C
As of 6:34 PM on Thursday 27 Nov 2014 (Local Time) from K7BM Reporting Station
Clear Clear  
Wind Chill: 33°   Ceiling: Unl
Heat Index: 45°   Visibility: 10mi
Dew Point:   Wind: 39mph
Humidity: 20%   Direction: 280°W
Pressure: 30.32"   Gusts: 58mph
Location:  38.7194°N, 106.276°W
Report Text: K7BM 280134Z AUTO 28034G50KT 250V310 10SM CLR 07/M15 A3032 RMK AO2
Loading
Personal Weather Stations






























Interactive Weather Map New forecast layout! Learn more

10-Day Weather Forecast

Advertisements
Track Severe Weather on mobile